sensor_id;sensor_type;location;lat;lon;timestamp;P1;durP1;ratioP1;P2;durP2;ratioP2
1460;SDS011;724;49.910;12.530;2023-08-30T02:25:31;8.80;;;8.30;;
1460;SDS011;724;49.910;12.530;2023-08-30T02:27:58;8.40;;;7.95;;
1460;SDS011;724;49.910;12.530;2023-08-30T02:30:25;9.00;;;8.50;;
1460;SDS011;724;49.910;12.530;2023-08-30T02:32:51;8.90;;;8.40;;
1460;SDS011;724;49.910;12.530;2023-08-30T02:35:18;8.70;;;8.20;;
1460;SDS011;724;49.910;12.530;2023-08-30T02:37:45;8.63;;;8.13;;
1460;SDS011;724;49.910;12.530;2023-08-30T02:40:11;8.20;;;7.80;;
1460;SDS011;724;49.910;12.530;2023-08-30T02:42:39;8.70;;;8.20;;
1460;SDS011;724;49.910;12.530;2023-08-30T02:45:06;8.20;;;7.80;;
1460;SDS011;724;49.910;12.530;2023-08-30T02:47:34;8.90;;;8.40;;
1460;SDS011;724;49.910;12.530;2023-08-30T02:50:01;8.70;;;8.20;;
1460;SDS011;724;49.910;12.530;2023-08-30T02:52:28;8.80;;;8.30;;
1460;SDS011;724;49.910;12.530;2023-08-30T02:54:54;8.90;;;8.40;;
1460;SDS011;724;49.910;12.530;2023-08-30T02:57:21;8.80;;;8.30;;
1460;SDS011;724;49.910;12.530;2023-08-30T02:59:49;9.00;;;8.50;;
1460;SDS011;724;49.910;12.530;2023-08-30T03:02:16;9.10;;;8.60;;
1460;SDS011;724;49.910;12.530;2023-08-30T03:04:43;9.20;;;8.70;;
1460;SDS011;724;49.910;12.530;2023-08-30T03:07:09;9.70;;;9.20;;
1460;SDS011;724;49.910;12.530;2023-08-30T03:09:36;9.30;;;8.80;;
1460;SDS011;724;49.910;12.530;2023-08-30T03:12:04;9.15;;;8.65;;
1460;SDS011;724;49.910;12.530;2023-08-30T03:14:31;9.50;;;9.00;;
1460;SDS011;724;49.910;12.530;2023-08-30T03:16:59;9.68;;;9.18;;
1460;SDS011;724;49.910;12.530;2023-08-30T03:19:26;9.70;;;9.20;;
1460;SDS011;724;49.910;12.530;2023-08-30T03:21:52;10.05;;;9.55;;
1460;SDS011;724;49.910;12.530;2023-08-30T03:24:19;9.68;;;9.18;;
1460;SDS011;724;49.910;12.530;2023-08-30T03:26:46;9.70;;;9.20;;
1460;SDS011;724;49.910;12.530;2023-08-30T03:29:13;9.68;;;9.18;;
1460;SDS011;724;49.910;12.530;2023-08-30T03:31:39;10.00;;;9.50;;
1460;SDS011;724;49.910;12.530;2023-08-30T03:44:30;9.90;;;9.40;;
1460;SDS011;724;49.910;12.530;2023-08-30T03:46:59;9.60;;;9.10;;
1460;SDS011;724;49.910;12.530;2023-08-30T03:49:26;9.77;;;9.27;;
1460;SDS011;724;49.910;12.530;2023-08-30T03:51:53;10.00;;;9.50;;
1460;SDS011;724;49.910;12.530;2023-08-30T03:54:19;9.40;;;8.90;;
1460;SDS011;724;49.910;12.530;2023-08-30T03:56:46;9.90;;;9.40;;
1460;SDS011;724;49.910;12.530;2023-08-30T03:59:13;9.90;;;9.40;;
1460;SDS011;724;49.910;12.530;2023-08-30T04:01:41;9.50;;;9.00;;
1460;SDS011;724;49.910;12.530;2023-08-30T04:04:08;9.60;;;9.10;;
1460;SDS011;724;49.910;12.530;2023-08-30T04:06:35;9.27;;;8.77;;
1460;SDS011;724;49.910;12.530;2023-08-30T04:09:02;9.20;;;8.70;;
1460;SDS011;724;49.910;12.530;2023-08-30T04:11:28;8.00;;;7.60;;
1460;SDS011;724;49.910;12.530;2023-08-30T04:13:55;8.35;;;7.93;;
1460;SDS011;724;49.910;12.530;2023-08-30T04:16:22;8.90;;;8.40;;
1460;SDS011;724;49.910;12.530;2023-08-30T04:18:50;10.10;;;9.60;;
1460;SDS011;724;49.910;12.530;2023-08-30T04:21:17;10.40;;;9.90;;
1460;SDS011;724;49.910;12.530;2023-08-30T04:23:43;10.63;;;10.02;;
1460;SDS011;724;49.910;12.530;2023-08-30T04:26:10;10.90;;;10.30;;
1460;SDS011;724;49.910;12.530;2023-08-30T04:28:37;11.00;;;10.40;;
1460;SDS011;724;49.910;12.530;2023-08-30T04:31:04;10.00;;;9.50;;
1460;SDS011;724;49.910;12.530;2023-08-30T04:33:30;9.80;;;9.30;;
1460;SDS011;724;49.910;12.530;2023-08-30T04:35:59;9.50;;;9.00;;
1460;SDS011;724;49.910;12.530;2023-08-30T04:38:29;9.40;;;8.90;;
1460;SDS011;724;49.910;12.530;2023-08-30T04:40:56;9.50;;;9.00;;
1460;SDS011;724;49.910;12.530;2023-08-30T04:43:24;9.73;;;9.23;;
1460;SDS011;724;49.910;12.530;2023-08-30T04:45:51;9.70;;;9.20;;
1460;SDS011;724;49.910;12.530;2023-08-30T04:48:17;10.10;;;9.60;;
1460;SDS011;724;49.910;12.530;2023-08-30T04:50:44;10.20;;;9.70;;
1460;SDS011;724;49.910;12.530;2023-08-30T04:53:12;9.93;;;9.43;;
1460;SDS011;724;49.910;12.530;2023-08-30T04:55:39;10.07;;;9.57;;
1460;SDS011;724;49.910;12.530;2023-08-30T04:58:06;9.65;;;9.15;;
1460;SDS011;724;49.910;12.530;2023-08-30T05:00:32;9.20;;;8.70;;
1460;SDS011;724;49.910;12.530;2023-08-30T05:02:59;9.20;;;8.70;;
1460;SDS011;724;49.910;12.530;2023-08-30T05:05:26;8.90;;;8.40;;
1460;SDS011;724;49.910;12.530;2023-08-30T05:07:52;9.00;;;8.50;;
1460;SDS011;724;49.910;12.530;2023-08-30T05:10:20;9.10;;;8.60;;
1460;SDS011;724;49.910;12.530;2023-08-30T05:12:47;8.90;;;8.40;;
1460;SDS011;724;49.910;12.530;2023-08-30T05:15:16;8.80;;;8.30;;
1460;SDS011;724;49.910;12.530;2023-08-30T05:17:43;8.80;;;8.30;;
1460;SDS011;724;49.910;12.530;2023-08-30T05:20:10;8.88;;;8.38;;
1460;SDS011;724;49.910;12.530;2023-08-30T05:22:37;9.30;;;8.80;;
1460;SDS011;724;49.910;12.530;2023-08-30T05:25:04;9.20;;;8.70;;
1460;SDS011;724;49.910;12.530;2023-08-30T05:27:32;9.40;;;8.90;;
1460;SDS011;724;49.910;12.530;2023-08-30T05:29:59;9.60;;;9.10;;
1460;SDS011;724;49.910;12.530;2023-08-30T05:32:26;9.40;;;8.90;;
1460;SDS011;724;49.910;12.530;2023-08-30T05:34:52;9.50;;;9.00;;
1460;SDS011;724;49.910;12.530;2023-08-30T05:37:19;9.60;;;9.10;;
1460;SDS011;724;49.910;12.530;2023-08-30T05:39:46;9.80;;;9.30;;
1460;SDS011;724;49.910;12.530;2023-08-30T05:42:13;9.80;;;9.30;;
1460;SDS011;724;49.910;12.530;2023-08-30T05:44:41;10.10;;;9.60;;
1460;SDS011;724;49.910;12.530;2023-08-30T05:47:08;10.20;;;9.70;;
1460;SDS011;724;49.910;12.530;2023-08-30T05:49:39;10.20;;;9.70;;
1460;SDS011;724;49.910;12.530;2023-08-30T05:52:06;10.30;;;9.80;;
1460;SDS011;724;49.910;12.530;2023-08-30T05:54:33;10.50;;;9.95;;
1460;SDS011;724;49.910;12.530;2023-08-30T05:57:00;10.57;;;10.00;;
1460;SDS011;724;49.910;12.530;2023-08-30T05:59:26;10.55;;;9.98;;
1460;SDS011;724;49.910;12.530;2023-08-30T06:01:55;11.00;;;10.40;;
1460;SDS011;724;49.910;12.530;2023-08-30T06:04:22;10.82;;;10.23;;
1460;SDS011;724;49.910;12.530;2023-08-30T06:06:48;10.70;;;10.10;;
1460;SDS011;724;49.910;12.530;2023-08-30T06:09:15;10.73;;;10.13;;
1460;SDS011;724;49.910;12.530;2023-08-30T06:11:43;10.90;;;10.30;;
1460;SDS011;724;49.910;12.530;2023-08-30T06:14:09;11.52;;;10.93;;
1460;SDS011;724;49.910;12.530;2023-08-30T06:19:11;11.82;;;11.23;;
1460;SDS011;724;49.910;12.530;2023-08-30T06:21:38;12.00;;;11.40;;
1460;SDS011;724;49.910;12.530;2023-08-30T06:24:05;12.40;;;11.80;;
1460;SDS011;724;49.910;12.530;2023-08-30T06:26:32;12.70;;;12.00;;
1460;SDS011;724;49.910;12.530;2023-08-30T06:28:59;13.07;;;12.38;;
1460;SDS011;724;49.910;12.530;2023-08-30T06:31:25;13.30;;;12.60;;
1460;SDS011;724;49.910;12.530;2023-08-30T06:33:53;13.80;;;13.10;;
1460;SDS011;724;49.910;12.530;2023-08-30T06:36:22;13.97;;;13.27;;
1460;SDS011;724;49.910;12.530;2023-08-30T06:38:48;14.20;;;13.50;;
1460;SDS011;724;49.910;12.530;2023-08-30T06:41:15;14.23;;;13.53;;
1460;SDS011;724;49.910;12.530;2023-08-30T06:43:42;14.80;;;14.00;;
1460;SDS011;724;49.910;12.530;2023-08-30T06:46:08;15.40;;;14.60;;
1460;SDS011;724;49.910;12.530;2023-08-30T06:48:35;15.40;;;14.60;;
1460;SDS011;724;49.910;12.530;2023-08-30T06:51:02;15.80;;;15.00;;
1460;SDS011;724;49.910;12.530;2023-08-30T06:53:30;15.90;;;15.10;;
1460;SDS011;724;49.910;12.530;2023-08-30T06:55:57;16.10;;;15.30;;
1460;SDS011;724;49.910;12.530;2023-08-30T06:58:24;15.90;;;15.10;;
1460;SDS011;724;49.910;12.530;2023-08-30T07:00:51;16.00;;;15.20;;
1460;SDS011;724;49.910;12.530;2023-08-30T07:03:18;16.10;;;15.30;;
1460;SDS011;724;49.910;12.530;2023-08-30T07:05:45;16.57;;;15.77;;
1460;SDS011;724;49.910;12.530;2023-08-30T07:08:13;16.90;;;16.00;;
1460;SDS011;724;49.910;12.530;2023-08-30T07:10:41;17.00;;;16.10;;
1460;SDS011;724;49.910;12.530;2023-08-30T07:13:08;17.17;;;16.27;;
1460;SDS011;724;49.910;12.530;2023-08-30T07:15:36;17.10;;;16.20;;
1460;SDS011;724;49.910;12.530;2023-08-30T07:18:04;17.00;;;16.10;;
1460;SDS011;724;49.910;12.530;2023-08-30T07:20:31;17.10;;;16.20;;
1460;SDS011;724;49.910;12.530;2023-08-30T07:22:58;17.00;;;16.10;;
1460;SDS011;724;49.910;12.530;2023-08-30T07:25:25;16.97;;;16.07;;
1460;SDS011;724;49.910;12.530;2023-08-30T07:27:53;16.90;;;16.00;;
1460;SDS011;724;49.910;12.530;2023-08-30T07:30:20;16.30;;;15.50;;
1460;SDS011;724;49.910;12.530;2023-08-30T07:32:46;16.60;;;15.80;;
1460;SDS011;724;49.910;12.530;2023-08-30T07:35:13;16.70;;;15.90;;
1460;SDS011;724;49.910;12.530;2023-08-30T07:37:40;16.77;;;15.93;;
1460;SDS011;724;49.910;12.530;2023-08-30T07:40:07;16.50;;;15.70;;
1460;SDS011;724;49.910;12.530;2023-08-30T07:42:35;15.90;;;15.10;;
1460;SDS011;724;49.910;12.530;2023-08-30T07:45:03;16.00;;;15.20;;
1460;SDS011;724;49.910;12.530;2023-08-30T07:47:31;16.30;;;15.50;;
1460;SDS011;724;49.910;12.530;2023-08-30T07:49:58;16.20;;;15.40;;
1460;SDS011;724;49.910;12.530;2023-08-30T07:52:25;16.20;;;15.40;;
1460;SDS011;724;49.910;12.530;2023-08-30T07:54:51;16.10;;;15.30;;
1460;SDS011;724;49.910;12.530;2023-08-30T07:57:18;15.90;;;15.10;;
1460;SDS011;724;49.910;12.530;2023-08-30T07:59:45;16.57;;;15.77;;
1460;SDS011;724;49.910;12.530;2023-08-30T08:02:13;16.10;;;15.30;;
1460;SDS011;724;49.910;12.530;2023-08-30T08:04:40;16.43;;;15.63;;
1460;SDS011;724;49.910;12.530;2023-08-30T08:07:06;16.10;;;15.30;;
1460;SDS011;724;49.910;12.530;2023-08-30T08:09:33;16.57;;;15.77;;
1460;SDS011;724;49.910;12.530;2023-08-30T08:12:00;16.00;;;15.20;;
1460;SDS011;724;49.910;12.530;2023-08-30T08:14:26;16.10;;;15.30;;
1460;SDS011;724;49.910;12.530;2023-08-30T08:16:53;15.73;;;14.93;;
1460;SDS011;724;49.910;12.530;2023-08-30T08:19:21;15.63;;;14.83;;
1460;SDS011;724;49.910;12.530;2023-08-30T08:21:48;15.70;;;14.90;;
1460;SDS011;724;49.910;12.530;2023-08-30T08:24:15;15.83;;;15.03;;
1460;SDS011;724;49.910;12.530;2023-08-30T08:26:44;15.60;;;14.80;;
1460;SDS011;724;49.910;12.530;2023-08-30T08:29:12;15.40;;;14.60;;
1460;SDS011;724;49.910;12.530;2023-08-30T08:31:39;15.30;;;14.50;;
1460;SDS011;724;49.910;12.530;2023-08-30T08:34:07;15.00;;;14.20;;
1460;SDS011;724;49.910;12.530;2023-08-30T08:36:37;15.30;;;14.50;;
1460;SDS011;724;49.910;12.530;2023-08-30T08:39:04;15.27;;;14.47;;
1460;SDS011;724;49.910;12.530;2023-08-30T08:41:33;14.93;;;14.13;;
1460;SDS011;724;49.910;12.530;2023-08-30T08:44:04;15.00;;;14.20;;
1460;SDS011;724;49.910;12.530;2023-08-30T08:46:33;15.20;;;14.40;;
1460;SDS011;724;49.910;12.530;2023-08-30T08:49:02;14.97;;;14.17;;
1460;SDS011;724;49.910;12.530;2023-08-30T08:51:33;15.20;;;14.40;;
1460;SDS011;724;49.910;12.530;2023-08-30T08:54:03;14.80;;;14.00;;
1460;SDS011;724;49.910;12.530;2023-08-30T08:56:30;15.70;;;14.90;;
1460;SDS011;724;49.910;12.530;2023-08-30T08:58:59;15.20;;;14.40;;
1460;SDS011;724;49.910;12.530;2023-08-30T09:01:26;15.80;;;15.00;;
1460;SDS011;724;49.910;12.530;2023-08-30T09:03:53;15.70;;;14.90;;
1460;SDS011;724;49.910;12.530;2023-08-30T09:06:20;16.00;;;15.20;;
1460;SDS011;724;49.910;12.530;2023-08-30T09:08:47;16.10;;;15.30;;
1460;SDS011;724;49.910;12.530;2023-08-30T09:11:15;15.80;;;15.00;;
1460;SDS011;724;49.910;12.530;2023-08-30T09:13:42;16.30;;;15.50;;
1460;SDS011;724;49.910;12.530;2023-08-30T09:16:13;16.00;;;15.20;;
1460;SDS011;724;49.910;12.530;2023-08-30T09:18:40;16.40;;;15.60;;
1460;SDS011;724;49.910;12.530;2023-08-30T09:21:07;15.90;;;15.10;;
1460;SDS011;724;49.910;12.530;2023-08-30T09:23:34;15.80;;;15.00;;
1460;SDS011;724;49.910;12.530;2023-08-30T09:26:01;15.80;;;15.00;;
1460;SDS011;724;49.910;12.530;2023-08-30T09:28:30;16.37;;;15.57;;
1460;SDS011;724;49.910;12.530;2023-08-30T09:30:58;16.60;;;15.80;;
1460;SDS011;724;49.910;12.530;2023-08-30T09:33:29;16.03;;;15.23;;
1460;SDS011;724;49.910;12.530;2023-08-30T09:35:58;16.20;;;15.40;;
1460;SDS011;724;49.910;12.530;2023-08-30T09:38:24;17.00;;;16.10;;
1460;SDS011;724;49.910;12.530;2023-08-30T09:40:51;17.00;;;16.10;;
1460;SDS011;724;49.910;12.530;2023-08-30T09:43:18;16.10;;;15.30;;
1460;SDS011;724;49.910;12.530;2023-08-30T09:45:49;17.20;;;16.30;;
1460;SDS011;724;49.910;12.530;2023-08-30T09:48:16;16.20;;;15.40;;
1460;SDS011;724;49.910;12.530;2023-08-30T09:50:47;16.37;;;15.57;;
1460;SDS011;724;49.910;12.530;2023-08-30T09:53:19;17.00;;;16.10;;
1460;SDS011;724;49.910;12.530;2023-08-30T09:55:47;16.33;;;15.53;;
1460;SDS011;724;49.910;12.530;2023-08-30T09:58:14;16.17;;;15.37;;
1460;SDS011;724;49.910;12.530;2023-08-30T10:00:42;16.13;;;15.33;;
1460;SDS011;724;49.910;12.530;2023-08-30T10:03:11;16.00;;;15.20;;
1460;SDS011;724;49.910;12.530;2023-08-30T10:05:38;16.30;;;15.50;;
1460;SDS011;724;49.910;12.530;2023-08-30T10:08:06;15.87;;;15.07;;
1460;SDS011;724;49.910;12.530;2023-08-30T10:10:34;15.00;;;14.20;;
1460;SDS011;724;49.910;12.530;2023-08-30T10:13:02;15.73;;;14.93;;
1460;SDS011;724;49.910;12.530;2023-08-30T10:15:31;15.00;;;14.20;;
1460;SDS011;724;49.910;12.530;2023-08-30T10:18:01;15.00;;;14.20;;
1460;SDS011;724;49.910;12.530;2023-08-30T10:20:31;15.30;;;14.50;;
1460;SDS011;724;49.910;12.530;2023-08-30T10:22:58;15.70;;;14.90;;
1460;SDS011;724;49.910;12.530;2023-08-30T10:25:26;15.10;;;14.30;;
1460;SDS011;724;49.910;12.530;2023-08-30T10:27:55;14.80;;;14.00;;
1460;SDS011;724;49.910;12.530;2023-08-30T10:30:23;14.80;;;14.00;;
1460;SDS011;724;49.910;12.530;2023-08-30T10:32:51;14.30;;;13.60;;
1460;SDS011;724;49.910;12.530;2023-08-30T10:35:18;14.80;;;14.00;;
1460;SDS011;724;49.910;12.530;2023-08-30T10:37:54;15.10;;;14.30;;
1460;SDS011;724;49.910;12.530;2023-08-30T10:40:22;15.80;;;15.00;;
1460;SDS011;724;49.910;12.530;2023-08-30T10:42:58;16.20;;;15.40;;
1460;SDS011;724;49.910;12.530;2023-08-30T10:45:25;14.83;;;14.03;;
1460;SDS011;724;49.910;12.530;2023-08-30T10:47:54;14.47;;;13.77;;
1460;SDS011;724;49.910;12.530;2023-08-30T10:50:27;14.60;;;13.90;;
1460;SDS011;724;49.910;12.530;2023-08-30T10:52:56;14.90;;;14.10;;
1460;SDS011;724;49.910;12.530;2023-08-30T10:55:24;14.40;;;13.70;;
1460;SDS011;724;49.910;12.530;2023-08-30T10:57:58;15.40;;;14.60;;
1460;SDS011;724;49.910;12.530;2023-08-30T11:00:27;15.40;;;14.60;;
1460;SDS011;724;49.910;12.530;2023-08-30T11:02:55;14.90;;;14.10;;
1460;SDS011;724;49.910;12.530;2023-08-30T11:05:23;14.00;;;13.30;;
1460;SDS011;724;49.910;12.530;2023-08-30T11:07:50;14.67;;;13.93;;
1460;SDS011;724;49.910;12.530;2023-08-30T11:10:19;15.00;;;14.20;;
1460;SDS011;724;49.910;12.530;2023-08-30T11:12:47;15.00;;;14.20;;
1460;SDS011;724;49.910;12.530;2023-08-30T11:15:14;15.00;;;14.20;;
1460;SDS011;724;49.910;12.530;2023-08-30T11:17:42;14.80;;;14.00;;
1460;SDS011;724;49.910;12.530;2023-08-30T11:20:09;13.90;;;13.20;;
1460;SDS011;724;49.910;12.530;2023-08-30T11:22:38;14.30;;;13.60;;
1460;SDS011;724;49.910;12.530;2023-08-30T11:25:07;15.10;;;14.30;;
1460;SDS011;724;49.910;12.530;2023-08-30T11:27:36;14.93;;;14.13;;
1460;SDS011;724;49.910;12.530;2023-08-30T11:30:03;15.00;;;14.20;;
1460;SDS011;724;49.910;12.530;2023-08-30T11:32:34;13.90;;;13.20;;
1460;SDS011;724;49.910;12.530;2023-08-30T11:35:02;14.80;;;14.00;;
1460;SDS011;724;49.910;12.530;2023-08-30T11:37:30;15.20;;;14.40;;
1460;SDS011;724;49.910;12.530;2023-08-30T11:39:57;15.30;;;14.50;;
1460;SDS011;724;49.910;12.530;2023-08-30T11:42:25;15.30;;;14.50;;
1460;SDS011;724;49.910;12.530;2023-08-30T11:44:53;14.40;;;13.70;;
1460;SDS011;724;49.910;12.530;2023-08-30T11:47:20;14.80;;;14.00;;
1460;SDS011;724;49.910;12.530;2023-08-30T11:49:49;15.07;;;14.27;;
1460;SDS011;724;49.910;12.530;2023-08-30T11:52:18;14.93;;;14.13;;
1460;SDS011;724;49.910;12.530;2023-08-30T11:54:46;15.00;;;14.20;;
1460;SDS011;724;49.910;12.530;2023-08-30T11:57:14;15.63;;;14.83;;
1460;SDS011;724;49.910;12.530;2023-08-30T11:59:42;15.20;;;14.40;;
1460;SDS011;724;49.910;12.530;2023-08-30T12:02:11;14.80;;;14.00;;
1460;SDS011;724;49.910;12.530;2023-08-30T12:04:41;15.10;;;14.30;;
1460;SDS011;724;49.910;12.530;2023-08-30T12:07:09;15.10;;;14.30;;
1460;SDS011;724;49.910;12.530;2023-08-30T12:09:36;15.00;;;14.20;;
1460;SDS011;724;49.910;12.530;2023-08-30T12:12:06;15.60;;;14.80;;
1460;SDS011;724;49.910;12.530;2023-08-30T12:14:35;15.50;;;14.70;;
1460;SDS011;724;49.910;12.530;2023-08-30T12:17:02;15.60;;;14.80;;
1460;SDS011;724;49.910;12.530;2023-08-30T12:19:31;14.60;;;13.90;;
1460;SDS011;724;49.910;12.530;2023-08-30T12:22:02;14.30;;;13.60;;
1460;SDS011;724;49.910;12.530;2023-08-30T12:24:39;14.10;;;13.40;;
1460;SDS011;724;49.910;12.530;2023-08-30T12:27:07;14.27;;;13.57;;
1460;SDS011;724;49.910;12.530;2023-08-30T12:29:34;14.00;;;13.30;;
1460;SDS011;724;49.910;12.530;2023-08-30T12:32:01;14.40;;;13.70;;
1460;SDS011;724;49.910;12.530;2023-08-30T12:34:28;14.20;;;13.50;;
1460;SDS011;724;49.910;12.530;2023-08-30T12:36:56;14.00;;;13.30;;
1460;SDS011;724;49.910;12.530;2023-08-30T12:39:22;14.00;;;13.30;;
1460;SDS011;724;49.910;12.530;2023-08-30T12:41:49;13.80;;;13.10;;
1460;SDS011;724;49.910;12.530;2023-08-30T12:44:16;13.90;;;13.20;;
1460;SDS011;724;49.910;12.530;2023-08-30T12:46:43;14.00;;;13.30;;
1460;SDS011;724;49.910;12.530;2023-08-30T12:49:09;14.30;;;13.60;;
1460;SDS011;724;49.910;12.530;2023-08-30T12:51:36;14.53;;;13.83;;
1460;SDS011;724;49.910;12.530;2023-08-30T12:54:04;14.43;;;13.73;;
1460;SDS011;724;49.910;12.530;2023-08-30T12:56:31;13.70;;;13.00;;
1460;SDS011;724;49.910;12.530;2023-08-30T12:58:58;13.80;;;13.10;;
1460;SDS011;724;49.910;12.530;2023-08-30T13:01:25;13.90;;;13.20;;
1460;SDS011;724;49.910;12.530;2023-08-30T13:03:51;14.07;;;13.37;;
1460;SDS011;724;49.910;12.530;2023-08-30T13:06:18;14.10;;;13.40;;
1460;SDS011;724;49.910;12.530;2023-08-30T13:08:45;14.10;;;13.40;;
1460;SDS011;724;49.910;12.530;2023-08-30T13:11:13;13.70;;;13.00;;
1460;SDS011;724;49.910;12.530;2023-08-30T13:13:40;14.20;;;13.50;;
1460;SDS011;724;49.910;12.530;2023-08-30T13:16:06;14.00;;;13.30;;
1460;SDS011;724;49.910;12.530;2023-08-30T13:18:33;13.80;;;13.10;;
1460;SDS011;724;49.910;12.530;2023-08-30T13:21:00;13.90;;;13.20;;
1460;SDS011;724;49.910;12.530;2023-08-30T13:23:27;14.00;;;13.30;;
1460;SDS011;724;49.910;12.530;2023-08-30T13:25:53;14.00;;;13.30;;
1460;SDS011;724;49.910;12.530;2023-08-30T13:28:21;13.97;;;13.27;;
1460;SDS011;724;49.910;12.530;2023-08-30T13:30:48;14.10;;;13.40;;
1460;SDS011;724;49.910;12.530;2023-08-30T13:33:16;14.10;;;13.40;;
1460;SDS011;724;49.910;12.530;2023-08-30T13:35:43;14.00;;;13.30;;
1460;SDS011;724;49.910;12.530;2023-08-30T13:38:15;13.80;;;13.10;;
1460;SDS011;724;49.910;12.530;2023-08-30T13:40:41;13.90;;;13.20;;
1460;SDS011;724;49.910;12.530;2023-08-30T13:43:08;13.90;;;13.20;;
1460;SDS011;724;49.910;12.530;2023-08-30T13:45:36;13.70;;;13.00;;
1460;SDS011;724;49.910;12.530;2023-08-30T13:48:03;14.07;;;13.37;;
1460;SDS011;724;49.910;12.530;2023-08-30T13:50:30;13.80;;;13.10;;
1460;SDS011;724;49.910;12.530;2023-08-30T13:52:57;13.97;;;13.27;;
1460;SDS011;724;49.910;12.530;2023-08-30T13:55:24;13.80;;;13.10;;
1460;SDS011;724;49.910;12.530;2023-08-30T13:57:51;13.73;;;13.03;;
1460;SDS011;724;49.910;12.530;2023-08-30T14:00:18;13.93;;;13.23;;
1460;SDS011;724;49.910;12.530;2023-08-30T14:02:47;14.00;;;13.30;;
1460;SDS011;724;49.910;12.530;2023-08-30T14:05:14;14.20;;;13.50;;
1460;SDS011;724;49.910;12.530;2023-08-30T14:07:40;13.70;;;13.00;;
1460;SDS011;724;49.910;12.530;2023-08-30T14:10:07;13.90;;;13.20;;
1460;SDS011;724;49.910;12.530;2023-08-30T14:12:34;13.90;;;13.20;;
1460;SDS011;724;49.910;12.530;2023-08-30T14:15:00;13.80;;;13.10;;
1460;SDS011;724;49.910;12.530;2023-08-30T14:17:28;13.60;;;12.90;;
1460;SDS011;724;49.910;12.530;2023-08-30T14:19:56;13.30;;;12.60;;
1460;SDS011;724;49.910;12.530;2023-08-30T14:22:22;13.10;;;12.40;;
1460;SDS011;724;49.910;12.530;2023-08-30T14:24:49;13.10;;;12.40;;
1460;SDS011;724;49.910;12.530;2023-08-30T14:27:16;12.80;;;12.10;;
1460;SDS011;724;49.910;12.530;2023-08-30T14:29:42;13.03;;;12.33;;
1460;SDS011;724;49.910;12.530;2023-08-30T14:32:09;12.87;;;12.17;;
1460;SDS011;724;49.910;12.530;2023-08-30T14:34:36;12.50;;;11.90;;
1460;SDS011;724;49.910;12.530;2023-08-30T14:37:04;12.80;;;12.10;;
1460;SDS011;724;49.910;12.530;2023-08-30T14:39:31;12.93;;;12.23;;
1460;SDS011;724;49.910;12.530;2023-08-30T14:41:57;13.40;;;12.70;;
1460;SDS011;724;49.910;12.530;2023-08-30T14:44:24;13.10;;;12.40;;
1460;SDS011;724;49.910;12.530;2023-08-30T14:46:51;13.00;;;12.30;;
1460;SDS011;724;49.910;12.530;2023-08-30T14:49:18;13.10;;;12.40;;
1460;SDS011;724;49.910;12.530;2023-08-30T14:51:44;13.10;;;12.40;;
1460;SDS011;724;49.910;12.530;2023-08-30T14:54:12;13.50;;;12.80;;
1460;SDS011;724;49.910;12.530;2023-08-30T14:56:39;13.10;;;12.40;;
1460;SDS011;724;49.910;12.530;2023-08-30T14:59:06;13.23;;;12.53;;
1460;SDS011;724;49.910;12.530;2023-08-30T15:01:32;12.80;;;12.10;;
1460;SDS011;724;49.910;12.530;2023-08-30T15:03:59;13.00;;;12.30;;
1460;SDS011;724;49.910;12.530;2023-08-30T15:06:26;13.27;;;12.57;;
1460;SDS011;724;49.910;12.530;2023-08-30T15:08:53;13.00;;;12.30;;
1460;SDS011;724;49.910;12.530;2023-08-30T15:11:21;13.30;;;12.60;;
1460;SDS011;724;49.910;12.530;2023-08-30T15:13:47;13.13;;;12.43;;
1460;SDS011;724;49.910;12.530;2023-08-30T15:16:14;13.00;;;12.30;;
1460;SDS011;724;49.910;12.530;2023-08-30T15:18:41;12.40;;;11.80;;
1460;SDS011;724;49.910;12.530;2023-08-30T15:21:08;12.80;;;12.10;;
1460;SDS011;724;49.910;12.530;2023-08-30T15:23:34;12.70;;;12.00;;
1460;SDS011;724;49.910;12.530;2023-08-30T15:26:03;12.50;;;11.90;;
1460;SDS011;724;49.910;12.530;2023-08-30T15:28:31;12.90;;;12.20;;
1460;SDS011;724;49.910;12.530;2023-08-30T15:30:58;12.80;;;12.10;;
1460;SDS011;724;49.910;12.530;2023-08-30T15:33:25;13.03;;;12.33;;
1460;SDS011;724;49.910;12.530;2023-08-30T15:35:52;12.83;;;12.13;;
1460;SDS011;724;49.910;12.530;2023-08-30T15:38:23;12.90;;;12.20;;
1460;SDS011;724;49.910;12.530;2023-08-30T15:40:50;13.00;;;12.30;;
1460;SDS011;724;49.910;12.530;2023-08-30T15:43:19;13.10;;;12.40;;
1460;SDS011;724;49.910;12.530;2023-08-30T15:45:47;13.03;;;12.33;;
1460;SDS011;724;49.910;12.530;2023-08-30T15:48:14;13.00;;;12.30;;
1460;SDS011;724;49.910;12.530;2023-08-30T15:50:41;13.10;;;12.40;;
1460;SDS011;724;49.910;12.530;2023-08-30T15:53:08;13.00;;;12.30;;
1460;SDS011;724;49.910;12.530;2023-08-30T15:55:35;12.80;;;12.10;;
1460;SDS011;724;49.910;12.530;2023-08-30T15:58:02;13.13;;;12.43;;
1460;SDS011;724;49.910;12.530;2023-08-30T16:00:29;13.10;;;12.40;;
1460;SDS011;724;49.910;12.530;2023-08-30T16:02:58;13.00;;;12.30;;
1460;SDS011;724;49.910;12.530;2023-08-30T16:05:25;12.80;;;12.10;;
1460;SDS011;724;49.910;12.530;2023-08-30T16:07:52;12.50;;;11.90;;
1460;SDS011;724;49.910;12.530;2023-08-30T16:10:19;12.47;;;11.87;;
1460;SDS011;724;49.910;12.530;2023-08-30T16:12:46;12.50;;;11.90;;
1460;SDS011;724;49.910;12.530;2023-08-30T16:15:12;12.37;;;11.77;;
1460;SDS011;724;49.910;12.530;2023-08-30T16:17:39;12.30;;;11.70;;
1460;SDS011;724;49.910;12.530;2023-08-30T16:20:08;12.30;;;11.70;;
1460;SDS011;724;49.910;12.530;2023-08-30T16:22:36;12.37;;;11.77;;
1460;SDS011;724;49.910;12.530;2023-08-30T16:25:03;12.13;;;11.53;;
1460;SDS011;724;49.910;12.530;2023-08-30T16:27:31;11.80;;;11.20;;
1460;SDS011;724;49.910;12.530;2023-08-30T16:29:58;12.43;;;11.83;;
1460;SDS011;724;49.910;12.530;2023-08-30T16:32:25;12.50;;;11.90;;
1460;SDS011;724;49.910;12.530;2023-08-30T16:34:52;12.70;;;12.00;;
1460;SDS011;724;49.910;12.530;2023-08-30T16:37:20;13.00;;;12.30;;
1460;SDS011;724;49.910;12.530;2023-08-30T16:39:46;12.90;;;12.20;;
1460;SDS011;724;49.910;12.530;2023-08-30T16:42:14;12.50;;;11.90;;
1460;SDS011;724;49.910;12.530;2023-08-30T16:44:41;12.70;;;12.00;;
1460;SDS011;724;49.910;12.530;2023-08-30T16:47:09;12.50;;;11.90;;
1460;SDS011;724;49.910;12.530;2023-08-30T16:49:35;12.90;;;12.20;;
1460;SDS011;724;49.910;12.530;2023-08-30T16:52:02;12.90;;;12.20;;
1460;SDS011;724;49.910;12.530;2023-08-30T16:54:31;12.20;;;11.60;;
1460;SDS011;724;49.910;12.530;2023-08-30T16:56:57;12.10;;;11.50;;
1460;SDS011;724;49.910;12.530;2023-08-30T16:59:27;12.40;;;11.80;;
1460;SDS011;724;49.910;12.530;2023-08-30T17:01:54;12.50;;;11.90;;
1460;SDS011;724;49.910;12.530;2023-08-30T17:04:22;12.70;;;12.00;;
1460;SDS011;724;49.910;12.530;2023-08-30T17:06:48;11.90;;;11.30;;
1460;SDS011;724;49.910;12.530;2023-08-30T17:09:15;12.20;;;11.60;;
1460;SDS011;724;49.910;12.530;2023-08-30T17:11:43;12.10;;;11.50;;
1460;SDS011;724;49.910;12.530;2023-08-30T17:14:10;11.90;;;11.30;;
1460;SDS011;724;49.910;12.530;2023-08-30T17:16:37;12.00;;;11.40;;
1460;SDS011;724;49.910;12.530;2023-08-30T17:19:05;11.73;;;11.13;;
1460;SDS011;724;49.910;12.530;2023-08-30T17:21:32;11.10;;;10.50;;
1460;SDS011;724;49.910;12.530;2023-08-30T17:23:58;11.60;;;11.00;;
1460;SDS011;724;49.910;12.530;2023-08-30T17:26:25;11.80;;;11.20;;
1460;SDS011;724;49.910;12.530;2023-08-30T17:28:53;11.90;;;11.30;;
1460;SDS011;724;49.910;12.530;2023-08-30T17:31:20;12.20;;;11.60;;